createdAt,value
2022-12-12T00:00:56.577Z,17.70
2022-12-12T00:03:27.655Z,19.03
2022-12-12T00:05:56.214Z,17.10
2022-12-12T00:08:25.237Z,18.00
2022-12-12T00:10:52.956Z,18.10
2022-12-12T00:13:20.627Z,17.30
2022-12-12T00:15:48.277Z,17.47
2022-12-12T00:18:15.969Z,17.13
2022-12-12T00:20:43.617Z,17.03
2022-12-12T00:23:11.269Z,17.30
2022-12-12T00:25:40.369Z,19.20
2022-12-12T00:28:08.061Z,18.00
2022-12-12T00:30:35.773Z,18.57
2022-12-12T00:33:03.485Z,18.03
2022-12-12T00:35:31.196Z,18.00
2022-12-12T00:37:59.482Z,17.80
2022-12-12T00:40:27.147Z,18.43
2022-12-12T00:42:56.290Z,18.53
2022-12-12T00:45:23.993Z,19.20
2022-12-12T00:47:51.696Z,19.67
2022-12-12T00:50:19.531Z,18.17
2022-12-12T00:52:47.132Z,19.30
2022-12-12T00:55:15.226Z,22.10
2022-12-12T00:57:43.118Z,19.33
2022-12-12T01:00:15.586Z,19.53
2022-12-12T01:02:43.431Z,19.60
2022-12-12T01:05:12.115Z,20.40
2022-12-12T01:07:40.067Z,19.87
2022-12-12T01:10:09.798Z,19.13
2022-12-12T01:12:37.553Z,19.97
2022-12-12T01:15:07.772Z,19.30
2022-12-12T01:17:37.946Z,19.60
2022-12-12T01:20:07.110Z,19.77
2022-12-12T01:22:34.893Z,20.43
2022-12-12T01:25:02.675Z,21.00
2022-12-12T01:27:30.715Z,19.60
2022-12-12T01:30:01.820Z,20.37
2022-12-12T01:32:29.458Z,20.03
2022-12-12T01:34:58.512Z,21.10
2022-12-12T01:37:26.501Z,20.73
2022-12-12T01:39:54.294Z,19.10
2022-12-12T01:42:21.977Z,19.23
2022-12-12T01:44:51.355Z,19.80
2022-12-12T01:47:20.567Z,19.70
2022-12-12T01:49:51.228Z,19.30
2022-12-12T01:52:23.230Z,18.87
2022-12-12T01:54:52.555Z,19.90
2022-12-12T01:57:28.088Z,21.00
2022-12-12T01:59:55.767Z,20.20
2022-12-12T02:02:23.440Z,21.20
2022-12-12T02:04:51.641Z,21.37
2022-12-12T02:07:20.598Z,21.37
2022-12-12T02:09:48.881Z,21.80
2022-12-12T02:12:16.635Z,20.73
2022-12-12T02:14:47.666Z,21.93
2022-12-12T02:17:33.569Z,20.87
2022-12-12T02:20:37.982Z,21.10
2022-12-12T02:23:41.617Z,19.73
2022-12-12T02:26:47.427Z,21.27
2022-12-12T02:29:40.364Z,19.60
2022-12-12T02:32:13.663Z,20.57
2022-12-12T02:34:46.210Z,20.27
2022-12-12T02:37:18.905Z,19.10
2022-12-12T02:39:49.256Z,19.70
2022-12-12T02:42:23.327Z,21.60
2022-12-12T02:44:56.418Z,22.20
2022-12-12T02:47:27.909Z,19.60
2022-12-12T02:49:58.395Z,22.60
2022-12-12T02:52:26.321Z,21.90
2022-12-12T02:54:54.005Z,22.73
2022-12-12T02:57:23.093Z,21.73
2022-12-12T02:59:53.445Z,21.40
2022-12-12T03:02:40.130Z,20.43
2022-12-12T03:05:41.885Z,21.00
2022-12-12T03:08:18.269Z,22.47
2022-12-12T03:10:51.732Z,19.53
2022-12-12T03:13:26.628Z,22.50
2022-12-12T03:15:59.666Z,22.70
2022-12-12T03:18:32.701Z,20.17
2022-12-12T03:21:04.208Z,21.57
2022-12-12T03:23:35.895Z,21.07
2022-12-12T03:26:05.519Z,22.10
2022-12-12T03:28:39.156Z,23.07
2022-12-12T03:31:10.016Z,23.10
2022-12-12T03:33:42.981Z,22.30
2022-12-12T03:36:14.394Z,21.70
2022-12-12T03:38:44.541Z,23.07
2022-12-12T03:41:15.812Z,22.70
2022-12-12T03:43:47.706Z,21.47
2022-12-12T03:46:18.285Z,23.27
2022-12-12T03:48:50.008Z,22.53
2022-12-12T03:51:20.250Z,19.87
2022-12-12T03:53:50.682Z,23.60
2022-12-12T03:56:20.952Z,22.37
2022-12-12T03:58:51.174Z,21.53
2022-12-12T04:01:20.635Z,22.60
2022-12-12T04:03:53.263Z,21.70
2022-12-12T04:06:28.911Z,22.27
2022-12-12T04:09:16.253Z,22.10
2022-12-12T04:12:05.908Z,21.77
2022-12-12T04:14:55.676Z,22.23
2022-12-12T04:17:30.408Z,21.03
2022-12-12T04:20:20.321Z,21.57
2022-12-12T04:23:10.057Z,22.30
2022-12-12T04:26:01.585Z,21.30
2022-12-12T04:28:30.198Z,23.37
2022-12-12T04:31:02.367Z,23.13
2022-12-12T04:33:31.549Z,21.27
2022-12-12T04:36:01.422Z,21.73
2022-12-12T04:38:29.737Z,22.13
2022-12-12T04:40:59.259Z,23.47
2022-12-12T04:43:31.509Z,22.27
2022-12-12T04:46:01.778Z,24.07
2022-12-12T04:48:37.020Z,22.80
2022-12-12T04:51:08.386Z,24.60
2022-12-12T04:53:39.789Z,23.00
2022-12-12T04:56:09.681Z,24.73
2022-12-12T04:58:37.861Z,24.30
2022-12-12T05:01:09.046Z,25.43
2022-12-12T05:03:42.735Z,25.70
2022-12-12T05:06:13.688Z,23.50
2022-12-12T05:08:43.335Z,21.63
2022-12-12T05:11:12.486Z,24.90
2022-12-12T05:13:42.864Z,23.57
2022-12-12T05:16:15.930Z,23.20
2022-12-12T05:18:43.648Z,21.37
2022-12-12T05:21:13.163Z,24.70
2022-12-12T05:23:40.795Z,24.13
2022-12-12T05:26:08.912Z,24.93
2022-12-12T05:28:37.428Z,25.40
2022-12-12T05:31:05.522Z,25.00
2022-12-12T05:33:33.288Z,24.60
2022-12-12T05:36:00.867Z,22.90
2022-12-12T05:38:29.821Z,23.00
2022-12-12T05:40:57.525Z,24.50
2022-12-12T05:43:26.069Z,24.20
2022-12-12T05:45:53.922Z,24.70
2022-12-12T05:48:24.502Z,24.27
2022-12-12T05:50:53.039Z,24.50
2022-12-12T05:53:21.246Z,24.60
2022-12-12T05:55:51.980Z,24.20
2022-12-12T05:58:20.583Z,24.00
2022-12-12T06:00:49.116Z,24.17
2022-12-12T06:03:17.262Z,24.17
2022-12-12T06:05:45.029Z,22.00
2022-12-12T06:08:16.693Z,23.73
2022-12-12T06:10:46.502Z,25.20
2022-12-12T06:13:15.512Z,24.53
2022-12-12T06:15:43.279Z,25.57
2022-12-12T06:18:12.280Z,24.00
2022-12-12T06:20:40.052Z,24.30
2022-12-12T06:23:07.704Z,25.90
2022-12-12T06:25:35.316Z,23.50
2022-12-12T06:28:03.006Z,24.13
2022-12-12T06:30:32.576Z,25.67
2022-12-12T06:33:00.622Z,24.67
2022-12-12T06:35:28.336Z,24.60
2022-12-12T06:37:58.239Z,29.30
2022-12-12T06:40:26.610Z,29.30
2022-12-12T06:42:55.197Z,26.63
2022-12-12T06:45:23.101Z,30.53
2022-12-12T06:47:53.354Z,28.23
2022-12-12T06:50:23.886Z,27.87
2022-12-12T06:52:51.680Z,28.03
2022-12-12T06:55:19.556Z,28.70
2022-12-12T06:57:47.369Z,29.00
2022-12-12T07:00:16.363Z,30.90
2022-12-12T07:02:44.013Z,42.57
2022-12-12T07:05:13.143Z,30.00
2022-12-12T07:07:40.939Z,30.00
2022-12-12T07:10:09.435Z,32.73
2022-12-12T07:12:37.097Z,32.20
2022-12-12T07:15:05.140Z,32.80
2022-12-12T07:17:32.805Z,31.17
2022-12-12T07:20:00.454Z,28.07
2022-12-12T07:22:29.966Z,28.37
2022-12-12T07:24:57.549Z,27.73
2022-12-12T07:27:25.182Z,32.90
2022-12-12T07:29:52.811Z,31.30
2022-12-12T07:32:20.430Z,29.33
2022-12-12T07:34:47.989Z,28.77
2022-12-12T07:37:15.606Z,27.50
2022-12-12T07:39:44.595Z,27.43
2022-12-12T07:42:12.226Z,28.60
2022-12-12T07:44:40.349Z,28.47
2022-12-12T07:47:08.114Z,28.07
2022-12-12T07:49:35.803Z,29.90
2022-12-12T07:52:03.662Z,30.60
2022-12-12T07:54:31.291Z,30.63
2022-12-12T07:57:01.119Z,28.30
2022-12-12T07:59:28.811Z,29.67
2022-12-12T08:01:56.527Z,30.60
2022-12-12T08:04:24.235Z,27.70
2022-12-12T08:06:58.353Z,27.03
2022-12-12T08:09:29.652Z,26.87
2022-12-12T08:11:58.390Z,26.20
2022-12-12T08:14:27.680Z,27.70
2022-12-12T08:16:55.482Z,30.93
2022-12-12T08:19:23.231Z,25.37
2022-12-12T08:21:51.010Z,27.77
2022-12-12T08:24:18.788Z,27.57
2022-12-12T08:26:46.759Z,26.80
2022-12-12T08:29:14.566Z,26.50
2022-12-12T08:31:44.705Z,26.97
2022-12-12T08:34:12.313Z,26.43
2022-12-12T08:36:40.011Z,27.60
2022-12-12T08:39:09.511Z,28.50
2022-12-12T08:41:39.469Z,29.80
2022-12-12T08:44:07.077Z,30.30
2022-12-12T08:46:34.786Z,28.83
2022-12-12T08:49:03.854Z,26.57
2022-12-12T08:51:31.574Z,29.17
2022-12-12T08:53:59.177Z,27.60
2022-12-12T08:56:26.970Z,30.50
2022-12-12T08:58:54.581Z,28.83
2022-12-12T09:01:24.587Z,29.30
2022-12-12T09:03:53.125Z,27.20
2022-12-12T09:06:22.289Z,26.90
2022-12-12T09:08:50.067Z,27.30
2022-12-12T09:11:18.281Z,29.80
2022-12-12T09:13:46.041Z,26.80
2022-12-12T09:16:13.730Z,28.17
2022-12-12T09:18:48.105Z,26.47
2022-12-12T09:21:16.704Z,27.30
2022-12-12T09:23:46.124Z,26.90
2022-12-12T09:26:14.405Z,26.40
2022-12-12T09:28:42.504Z,28.50
2022-12-12T09:31:11.959Z,25.80
2022-12-12T09:33:40.300Z,25.90
2022-12-12T09:36:09.464Z,26.80
2022-12-12T09:38:37.459Z,27.17
2022-12-12T09:41:13.032Z,26.67
2022-12-12T09:43:49.614Z,28.53
2022-12-12T09:46:26.328Z,29.93
2022-12-12T09:48:58.139Z,28.17
2022-12-12T09:51:26.076Z,27.43
2022-12-12T09:53:53.737Z,26.87
2022-12-12T09:56:26.103Z,29.50
2022-12-12T09:58:59.982Z,24.73
2022-12-12T10:01:32.619Z,29.10
2022-12-12T10:04:07.696Z,26.87
2022-12-12T10:06:39.778Z,23.90
2022-12-12T10:09:28.416Z,25.50
2022-12-12T10:11:59.285Z,22.30
2022-12-12T10:14:34.526Z,24.67
2022-12-12T10:17:03.985Z,20.13
2022-12-12T10:19:34.133Z,24.27
2022-12-12T10:22:05.788Z,21.90
2022-12-12T10:24:38.161Z,22.50
2022-12-12T10:27:12.182Z,23.87
2022-12-12T10:29:42.680Z,21.03
2022-12-12T10:32:19.503Z,24.20
2022-12-12T10:34:57.218Z,20.80
2022-12-12T10:37:36.354Z,21.63
2022-12-12T10:40:14.324Z,23.47
2022-12-12T10:42:47.670Z,22.40
2022-12-12T10:45:33.252Z,23.20
2022-12-12T10:48:01.583Z,25.50
2022-12-12T10:50:34.612Z,23.73
2022-12-12T10:53:02.940Z,22.60
2022-12-12T10:55:36.971Z,23.77
2022-12-12T10:58:07.006Z,22.33
2022-12-12T11:00:36.579Z,22.70
2022-12-12T11:03:26.889Z,22.30
2022-12-12T11:05:55.204Z,21.70
2022-12-12T11:08:27.830Z,20.30
2022-12-12T11:11:08.546Z,21.80
2022-12-12T11:13:47.827Z,23.70
2022-12-12T11:16:19.104Z,22.40
2022-12-12T11:19:02.247Z,23.50
2022-12-12T11:21:33.006Z,22.27
2022-12-12T11:24:01.807Z,21.20
2022-12-12T11:26:29.988Z,24.50
2022-12-12T11:29:01.307Z,23.20
2022-12-12T11:31:31.488Z,21.40
2022-12-12T11:34:01.101Z,22.63
2022-12-12T11:36:31.992Z,23.00
2022-12-12T11:39:01.408Z,23.03
2022-12-12T11:41:29.367Z,22.00
2022-12-12T11:44:01.386Z,22.87
2022-12-12T11:46:30.875Z,20.30
2022-12-12T11:49:01.058Z,22.87
2022-12-12T11:51:34.650Z,22.43
2022-12-12T11:54:03.628Z,22.47
2022-12-12T11:56:39.987Z,23.27
2022-12-12T11:59:21.137Z,21.90
2022-12-12T12:01:56.258Z,24.30
2022-12-12T12:04:33.395Z,25.23
2022-12-12T12:07:14.737Z,23.13
2022-12-12T12:09:46.501Z,21.90
2022-12-12T12:12:17.324Z,26.10
2022-12-12T12:14:59.519Z,23.40
2022-12-12T12:17:33.304Z,24.03
2022-12-12T12:20:05.686Z,23.57
2022-12-12T12:22:43.362Z,23.00
2022-12-12T12:25:31.710Z,25.17
2022-12-12T12:28:07.897Z,24.20
2022-12-12T12:30:51.940Z,24.03
2022-12-12T12:33:38.018Z,23.63
2022-12-12T12:36:16.305Z,25.10
2022-12-12T12:38:57.670Z,24.67
2022-12-12T12:41:37.565Z,25.60
2022-12-12T12:44:15.624Z,23.90
2022-12-12T12:46:50.935Z,23.10
2022-12-12T12:49:21.985Z,25.03
2022-12-12T12:51:55.826Z,24.33
2022-12-12T12:54:25.979Z,24.60
2022-12-12T12:56:57.631Z,24.43
2022-12-12T12:59:31.065Z,24.87
2022-12-12T13:02:03.707Z,23.40
2022-12-12T13:04:35.339Z,23.47
2022-12-12T13:07:08.021Z,22.70
2022-12-12T13:09:39.518Z,21.03
2022-12-12T13:12:17.196Z,16.80
2022-12-12T13:14:47.224Z,18.50
2022-12-12T13:17:19.596Z,20.77
2022-12-12T13:19:48.920Z,21.93
2022-12-12T13:22:20.588Z,20.90
2022-12-12T13:24:59.430Z,20.07
2022-12-12T13:27:32.748Z,17.93
2022-12-12T13:30:03.448Z,17.97
2022-12-12T13:33:05.978Z,18.70
2022-12-12T13:35:36.124Z,19.67
2022-12-12T13:38:04.178Z,19.27
2022-12-12T13:40:39.735Z,19.17
2022-12-12T13:43:10.502Z,20.63
2022-12-12T13:45:43.816Z,19.43
2022-12-12T13:48:35.166Z,19.93
2022-12-12T13:51:40.783Z,18.57
2022-12-12T13:54:51.332Z,18.83
2022-12-12T13:57:31.331Z,19.00
2022-12-12T14:00:23.097Z,21.90
2022-12-12T14:03:01.715Z,21.00
2022-12-12T14:05:34.238Z,22.27
2022-12-12T14:08:05.816Z,23.27
2022-12-12T14:10:36.362Z,23.90
2022-12-12T14:13:18.055Z,23.10
2022-12-12T14:15:46.413Z,22.50
2022-12-12T14:18:24.702Z,20.43
2022-12-12T14:21:00.441Z,23.30
2022-12-12T14:23:30.481Z,22.27
2022-12-12T14:25:59.778Z,21.77
2022-12-12T14:28:28.384Z,21.40
2022-12-12T14:31:04.437Z,23.23
2022-12-12T14:34:01.404Z,20.50
2022-12-12T14:37:04.696Z,23.57
2022-12-12T14:39:51.214Z,21.93
2022-12-12T14:43:21.349Z,23.97
2022-12-12T14:45:30.468Z,24.03
2022-12-12T14:48:26.458Z,25.20
2022-12-12T14:50:57.551Z,24.23
2022-12-12T14:53:27.036Z,23.80
2022-12-12T14:55:58.551Z,25.70
2022-12-12T14:58:28.526Z,25.57
2022-12-12T15:00:58.562Z,26.13
2022-12-12T15:03:29.872Z,26.97
2022-12-12T15:06:28.576Z,26.37
2022-12-12T15:08:57.738Z,28.27
2022-12-12T15:11:29.032Z,25.77
2022-12-12T15:13:58.515Z,28.27
2022-12-12T15:16:29.398Z,25.60
2022-12-12T15:18:58.379Z,26.30
2022-12-12T15:21:26.166Z,28.30
2022-12-12T15:23:53.890Z,26.67
2022-12-12T15:26:23.976Z,27.40
2022-12-12T15:28:53.327Z,26.10
2022-12-12T15:31:21.464Z,27.10
2022-12-12T15:33:50.235Z,27.30
2022-12-12T15:36:24.556Z,28.30
2022-12-12T15:39:22.388Z,28.43
2022-12-12T15:41:50.464Z,29.07
2022-12-12T15:44:21.248Z,27.77
2022-12-12T15:46:50.424Z,27.70
2022-12-12T15:49:40.302Z,27.47
2022-12-12T15:52:12.936Z,26.40
2022-12-12T15:54:47.184Z,28.53
2022-12-12T15:57:17.228Z,26.50
2022-12-12T15:59:46.774Z,26.70
2022-12-12T16:02:29.067Z,30.23
2022-12-12T16:05:00.418Z,29.10
2022-12-12T16:07:28.200Z,27.70
2022-12-12T16:10:03.346Z,28.87
2022-12-12T16:12:56.442Z,27.30
2022-12-12T16:15:31.606Z,27.33
2022-12-12T16:18:04.910Z,26.43
2022-12-12T16:20:34.073Z,28.27
2022-12-12T16:23:20.030Z,30.07
2022-12-12T16:25:49.222Z,27.40
2022-12-12T16:28:25.612Z,26.80
2022-12-12T16:30:57.493Z,27.43
2022-12-12T16:33:28.402Z,27.30
2022-12-12T16:35:56.337Z,29.17
2022-12-12T16:38:24.206Z,29.83
2022-12-12T16:40:54.344Z,27.57
2022-12-12T16:43:23.653Z,26.90
2022-12-12T16:45:52.686Z,28.60
2022-12-12T16:48:23.510Z,27.80
2022-12-12T16:50:53.058Z,25.20
2022-12-12T16:53:21.551Z,27.40
2022-12-12T16:55:51.517Z,26.80
2022-12-12T16:58:21.195Z,28.83
2022-12-12T17:00:49.880Z,29.60
2022-12-12T17:03:18.356Z,28.77
2022-12-12T17:05:48.674Z,29.27
2022-12-12T17:08:17.222Z,26.80
2022-12-12T17:10:45.796Z,29.87
2022-12-12T17:13:16.635Z,31.10
2022-12-12T17:15:44.489Z,28.00
2022-12-12T17:18:12.351Z,26.37
2022-12-12T17:20:40.537Z,27.20
2022-12-12T17:23:28.138Z,29.73
2022-12-12T17:26:02.454Z,27.27
2022-12-12T17:28:32.050Z,28.70
2022-12-12T17:30:59.809Z,28.70
2022-12-12T17:33:27.672Z,27.80
2022-12-12T17:36:00.153Z,29.33
2022-12-12T17:38:30.410Z,30.20
2022-12-12T17:40:58.770Z,27.43
2022-12-12T17:43:27.123Z,30.03
2022-12-12T17:45:59.587Z,29.60
2022-12-12T17:48:28.874Z,30.20
2022-12-12T17:50:58.121Z,29.93
2022-12-12T17:53:26.000Z,29.03
2022-12-12T17:56:01.205Z,26.97
2022-12-12T17:58:35.115Z,29.97
2022-12-12T18:01:10.267Z,30.87
2022-12-12T18:03:38.269Z,30.00
2022-12-12T18:06:06.324Z,32.37
2022-12-12T18:08:34.007Z,29.00
2022-12-12T18:11:03.165Z,31.23
2022-12-12T18:13:30.770Z,32.47
2022-12-12T18:15:59.292Z,31.70
2022-12-12T18:18:28.398Z,32.93
2022-12-12T18:20:56.599Z,29.50
2022-12-12T18:23:24.315Z,30.30
2022-12-12T18:25:51.888Z,29.57
2022-12-12T18:28:20.942Z,32.60
2022-12-12T18:30:50.220Z,30.63
2022-12-12T18:33:17.910Z,29.87
2022-12-12T18:35:45.733Z,29.20
2022-12-12T18:38:13.441Z,29.57
2022-12-12T18:40:41.149Z,31.70
2022-12-12T18:43:09.226Z,38.83
2022-12-12T18:45:39.019Z,32.83
2022-12-12T18:48:06.996Z,29.70
2022-12-12T18:50:34.795Z,30.80
2022-12-12T18:53:02.487Z,30.10
2022-12-12T18:55:31.239Z,31.07
2022-12-12T18:57:58.949Z,31.67
2022-12-12T19:00:26.591Z,32.20
2022-12-12T19:02:55.604Z,32.43
2022-12-12T19:05:23.309Z,34.07
2022-12-12T19:07:51.100Z,34.50
2022-12-12T19:10:19.037Z,34.13
2022-12-12T19:12:46.911Z,33.33
2022-12-12T19:15:17.103Z,37.80
2022-12-12T19:17:45.205Z,36.10
2022-12-12T19:20:14.532Z,34.90
2022-12-12T19:22:46.614Z,32.70
2022-12-12T19:25:15.074Z,34.27
2022-12-12T19:27:43.016Z,35.07
2022-12-12T19:30:12.415Z,31.90
2022-12-12T19:32:40.477Z,36.57
2022-12-12T19:35:08.983Z,30.97
2022-12-12T19:37:38.197Z,33.70
2022-12-12T19:40:06.876Z,38.17
2022-12-12T19:42:34.586Z,33.80
2022-12-12T19:45:04.390Z,36.77
2022-12-12T19:47:33.402Z,37.17
2022-12-12T19:50:01.283Z,41.30
2022-12-12T19:52:32.169Z,37.47
2022-12-12T19:55:01.325Z,39.43
2022-12-12T19:57:29.021Z,40.43
2022-12-12T19:59:56.738Z,39.90
2022-12-12T20:02:24.594Z,37.87
2022-12-12T20:04:52.420Z,41.57
2022-12-12T20:07:20.222Z,44.87
2022-12-12T20:09:47.935Z,45.10
2022-12-12T20:12:16.964Z,43.07
2022-12-12T20:14:44.599Z,42.27
2022-12-12T20:17:12.297Z,40.20
2022-12-12T20:19:39.982Z,42.87
2022-12-12T20:22:09.242Z,39.20
2022-12-12T20:24:37.523Z,40.53
2022-12-12T20:27:05.627Z,39.00
2022-12-12T20:29:35.821Z,39.30
2022-12-12T20:32:03.831Z,36.57
2022-12-12T20:34:31.844Z,38.83
2022-12-12T20:36:59.492Z,39.77
2022-12-12T20:39:27.292Z,41.90
2022-12-12T20:41:56.615Z,42.47
2022-12-12T20:44:25.679Z,41.40
2022-12-12T20:46:55.012Z,42.73
2022-12-12T20:49:24.683Z,48.40
2022-12-12T20:51:57.654Z,49.93
2022-12-12T20:54:27.765Z,50.03
2022-12-12T20:56:55.759Z,49.87
2022-12-12T20:59:23.857Z,52.10
2022-12-12T21:01:51.945Z,54.37
2022-12-12T21:04:21.492Z,52.37
2022-12-12T21:06:49.865Z,54.60
2022-12-12T21:09:23.724Z,49.13
2022-12-12T21:11:52.339Z,49.80
2022-12-12T21:14:20.068Z,52.53
2022-12-12T21:16:47.766Z,51.77
2022-12-12T21:19:17.274Z,53.83
2022-12-12T21:21:47.336Z,51.77
2022-12-12T21:24:17.721Z,54.40
2022-12-12T21:26:46.273Z,47.63
2022-12-12T21:29:14.110Z,53.70
2022-12-12T21:31:50.286Z,53.00
2022-12-12T21:34:19.595Z,53.07
2022-12-12T21:36:51.232Z,51.13
2022-12-12T21:39:19.078Z,54.33
2022-12-12T21:41:46.947Z,50.17
2022-12-12T21:44:14.983Z,52.23
2022-12-12T21:46:44.170Z,50.17
2022-12-12T21:49:25.984Z,57.50
2022-12-12T21:51:56.437Z,51.80
2022-12-12T21:54:24.459Z,52.87
2022-12-12T21:56:52.856Z,51.30
2022-12-12T21:59:20.498Z,51.47
2022-12-12T22:01:48.324Z,50.70
2022-12-12T22:04:17.333Z,50.97
2022-12-12T22:06:45.782Z,49.23
2022-12-12T22:09:15.120Z,49.87
2022-12-12T22:11:49.777Z,51.37
2022-12-12T22:14:19.650Z,51.37
2022-12-12T22:16:47.369Z,50.57
2022-12-12T22:19:16.061Z,50.93
2022-12-12T22:21:47.248Z,51.30
2022-12-12T22:24:16.573Z,51.40
2022-12-12T22:26:46.023Z,51.60
2022-12-12T22:29:15.108Z,48.83
2022-12-12T22:31:43.203Z,48.37
2022-12-12T22:34:13.506Z,52.63
2022-12-12T22:36:41.394Z,57.03
2022-12-12T22:39:12.022Z,60.37
2022-12-12T22:41:41.008Z,52.13
2022-12-12T22:44:08.976Z,52.00
2022-12-12T22:46:42.133Z,49.60
2022-12-12T22:49:13.213Z,49.83
2022-12-12T22:51:40.874Z,50.50
2022-12-12T22:54:08.593Z,49.57
2022-12-12T22:56:37.588Z,50.50
2022-12-12T22:59:07.175Z,52.57
2022-12-12T23:01:35.317Z,50.00
2022-12-12T23:04:03.082Z,53.57
2022-12-12T23:06:33.235Z,49.60
2022-12-12T23:09:02.527Z,48.40
2022-12-12T23:11:31.702Z,50.57
2022-12-12T23:14:01.041Z,47.33
2022-12-12T23:16:30.983Z,46.40
2022-12-12T23:18:59.908Z,52.03
2022-12-12T23:21:27.799Z,47.30
2022-12-12T23:23:55.940Z,48.00
2022-12-12T23:26:25.412Z,47.07
2022-12-12T23:28:53.428Z,49.33
2022-12-12T23:31:23.418Z,46.37
2022-12-12T23:33:55.268Z,46.57
2022-12-12T23:36:23.189Z,46.40
2022-12-12T23:38:55.459Z,44.30
2022-12-12T23:41:23.420Z,46.37
2022-12-12T23:43:51.860Z,46.83
2022-12-12T23:46:29.320Z,45.60
2022-12-12T23:48:59.741Z,45.40
2022-12-12T23:51:29.414Z,43.57
2022-12-12T23:53:57.557Z,46.67
2022-12-12T23:56:25.386Z,45.20
2022-12-12T23:58:53.425Z,42.20
